Time;durP1;ratioP1;P1;durP2;ratioP2;P2;SDS_P1;SDS_P2;PMS_P1;PMS_P2;Temp;Humidity;BMP_temperature;BMP_pressure;BME280_temperature;BME280_humidity;BME280_pressure;Samples;Min_cycle;Max_cycle;Signal;HPM_P1;HPM_P2
2022/02/07 00:00:41;;;;;;;8.70;1.27;;;3.10;99.90;;;;;;5071588;28;20194;-57
2022/02/07 00:03:15;;;;;;;4.73;1.00;;;3.10;99.90;;;;;;5075364;28;20292;-51
2022/02/07 00:05:42;;;;;;;3.57;0.80;;;3.00;99.90;;;;;;5066830;28;20279;-56
2022/02/07 00:08:10;;;;;;;3.60;0.90;;;3.00;99.90;;;;;;5071073;28;20296;-52
2022/02/07 00:10:40;;;;;;;3.70;0.70;;;3.00;99.90;;;;;;5075652;28;20697;-52
2022/02/07 00:13:07;;;;;;;2.73;0.83;;;3.00;99.90;;;;;;5061088;28;20198;-55
2022/02/07 00:15:35;;;;;;;3.17;1.20;;;2.90;99.90;;;;;;5081295;28;20208;-58
2022/02/07 00:18:02;;;;;;;3.43;1.00;;;2.90;99.90;;;;;;5071200;28;20230;-55
2022/02/07 00:20:30;;;;;;;5.07;0.80;;;2.90;99.90;;;;;;5075622;28;20206;-54
2022/02/07 00:22:56;;;;;;;1.80;0.67;;;2.90;99.90;;;;;;5078016;28;20223;-55
2022/02/07 00:25:23;;;;;;;6.43;0.70;;;2.80;99.90;;;;;;5069505;28;20647;-58
2022/02/07 00:27:51;;;;;;;6.90;1.20;;;2.80;99.90;;;;;;5058801;28;20232;-51
2022/02/07 00:30:20;;;;;;;3.80;1.47;;;2.80;99.90;;;;;;5081502;28;20236;-56
2022/02/07 00:32:48;;;;;;;4.30;1.00;;;2.80;99.90;;;;;;5072379;28;20189;-55
2022/02/07 00:35:18;;;;;;;6.40;0.90;;;2.80;99.90;;;;;;5069643;28;20691;-52
2022/02/07 00:37:47;;;;;;;6.00;1.07;;;2.80;99.90;;;;;;5080253;28;20799;-46
2022/02/07 00:40:29;;;;;;;6.17;0.83;;;2.80;99.90;;;;;;5066806;28;20226;-47
2022/02/07 00:43:00;;;;;;;5.37;0.83;;;2.80;99.90;;;;;;5080966;28;20255;-51
2022/02/07 00:45:41;;;;;;;6.67;1.20;;;2.80;99.90;;;;;;5069733;28;20214;-53
2022/02/07 00:48:10;;;;;;;3.57;1.37;;;2.80;99.90;;;;;;5080677;28;20210;-51
2022/02/07 00:50:41;;;;;;;6.23;1.00;;;2.90;99.90;;;;;;5066800;28;20618;-53
2022/02/07 00:53:13;;;;;;;10.17;1.77;;;3.00;99.90;;;;;;5076988;28;20201;-44
2022/02/07 00:55:43;;;;;;;4.40;0.90;;;3.00;99.90;;;;;;5087247;28;20205;-57
2022/02/07 00:58:12;;;;;;;7.73;1.07;;;3.10;99.90;;;;;;5081846;28;20217;-55
2022/02/07 01:00:39;;;;;;;7.43;1.27;;;3.10;99.90;;;;;;5065326;28;20198;-56
2022/02/07 01:03:07;;;;;;;6.07;0.90;;;3.10;99.90;;;;;;5077797;28;20194;-49
2022/02/07 01:05:35;;;;;;;6.20;0.97;;;3.10;99.90;;;;;;5070591;28;20293;-57
2022/02/07 01:08:09;;;;;;;2.57;0.97;;;3.00;99.90;;;;;;5080651;28;20301;-57
2022/02/07 01:10:46;;;;;;;4.83;1.20;;;3.00;99.90;;;;;;5078395;28;20235;-56
2022/02/07 01:13:23;;;;;;;2.20;0.87;;;2.90;99.90;;;;;;5066110;28;20221;-52
2022/02/07 01:16:04;;;;;;;5.80;1.17;;;2.90;99.90;;;;;;5071191;28;20212;-57
2022/02/07 01:22:04;;;;;;;3.37;0.77;;;2.80;99.90;;;;;;5073136;28;20779;-53
2022/02/07 01:47:40;;;;;;;8.07;0.80;;;2.70;99.90;;;;;;5063236;28;20225;-56
2022/02/07 01:53:02;;;;;;;3.33;0.70;;;2.70;99.90;;;;;;5067303;28;20194;-46
2022/02/07 01:55:38;;;;;;;2.53;0.80;;;2.70;99.90;;;;;;5081499;28;21014;-50
2022/02/07 01:58:07;;;;;;;7.33;1.00;;;2.70;99.90;;;;;;5074415;28;20222;-50
2022/02/07 02:00:37;;;;;;;11.83;1.20;;;2.60;99.90;;;;;;5072001;28;20270;-49
2022/02/07 02:03:05;;;;;;;4.70;1.13;;;2.60;99.90;;;;;;5075597;28;20916;-49
2022/02/07 02:05:52;;;;;;;7.57;1.20;;;2.60;99.90;;;;;;5071902;28;20228;-45
2022/02/07 02:08:25;;;;;;;7.50;1.00;;;2.60;99.90;;;;;;5074427;28;20296;-52
2022/02/07 02:10:57;;;;;;;6.33;0.80;;;2.60;99.90;;;;;;5079609;28;20404;-48
2022/02/07 02:13:40;;;;;;;6.60;1.30;;;2.60;99.90;;;;;;5075161;28;20212;-50
2022/02/07 02:16:15;;;;;;;6.70;0.87;;;2.60;99.90;;;;;;5077500;28;20198;-46
2022/02/07 02:22:30;;;;;;;7.00;1.20;;;2.60;99.90;;;;;;5074991;28;20204;-53
2022/02/07 02:34:01;;;;;;;4.53;0.90;;;2.60;99.90;;;;;;5066203;28;20666;-50
2022/02/07 02:36:32;;;;;;;3.37;1.10;;;2.60;99.90;;;;;;5079528;28;20674;-53
2022/02/07 02:47:28;;;;;;;3.33;0.63;;;2.70;99.90;;;;;;5080901;28;20229;-55
2022/02/07 02:50:05;;;;;;;6.97;0.87;;;2.80;99.90;;;;;;5073684;28;20196;-56
2022/02/07 02:52:34;;;;;;;5.83;1.00;;;2.90;99.90;;;;;;5076557;28;20201;-53
2022/02/07 02:55:01;;;;;;;4.67;0.97;;;2.90;99.90;;;;;;5072628;28;20784;-53
2022/02/07 02:57:29;;;;;;;6.87;1.63;;;2.90;99.90;;;;;;5083219;28;20651;-55
2022/02/07 02:59:56;;;;;;;5.63;1.20;;;3.00;99.90;;;;;;5069086;28;20206;-51
2022/02/07 03:02:23;;;;;;;4.57;1.10;;;3.00;99.90;;;;;;5072680;28;20198;-51
2022/02/07 03:04:50;;;;;;;9.63;1.30;;;3.00;99.90;;;;;;5060199;28;20275;-50
2022/02/07 03:07:17;;;;;;;6.47;1.30;;;3.00;99.90;;;;;;5082941;28;20222;-52
2022/02/07 03:09:49;;;;;;;5.93;1.20;;;3.00;99.90;;;;;;5074142;28;20286;-48
2022/02/07 03:12:18;;;;;;;2.70;1.00;;;3.00;99.90;;;;;;5073857;28;20222;-51
2022/02/07 03:14:48;;;;;;;5.97;1.30;;;3.00;99.90;;;;;;5078735;28;20294;-47
2022/02/07 03:17:16;;;;;;;10.63;1.27;;;3.00;99.90;;;;;;5076312;28;20628;-45
2022/02/07 03:19:43;;;;;;;10.47;1.00;;;3.00;99.90;;;;;;5064129;28;20213;-53
2022/02/07 03:22:10;;;;;;;8.90;1.40;;;2.90;99.90;;;;;;5073931;28;20187;-51
2022/02/07 03:24:37;;;;;;;4.20;1.37;;;2.90;99.90;;;;;;5077145;28;20194;-48
2022/02/07 03:27:15;;;;;;;7.37;1.57;;;2.90;99.90;;;;;;5076244;28;20258;-54
2022/02/07 03:30:05;;;;;;;9.67;0.90;;;3.00;99.90;;;;;;5077970;28;20293;-48
2022/02/07 03:32:43;;;;;;;7.07;1.27;;;2.90;99.90;;;;;;5065187;28;20706;-52
2022/02/07 03:35:13;;;;;;;8.97;1.37;;;3.00;99.90;;;;;;5065210;28;20256;-52
2022/02/07 03:37:39;;;;;;;7.57;1.17;;;3.00;99.90;;;;;;5075830;28;20226;-52
2022/02/07 03:40:10;;;;;;;5.23;1.50;;;3.00;99.90;;;;;;5076337;28;20712;-55
2022/02/07 03:42:41;;;;;;;5.10;1.03;;;3.00;99.90;;;;;;5071977;28;20297;-52
2022/02/07 03:45:11;;;;;;;10.80;1.27;;;3.00;99.90;;;;;;5081936;28;20640;-52
2022/02/07 03:47:44;;;;;;;6.97;1.43;;;3.00;99.90;;;;;;5069246;28;20600;-53
2022/02/07 03:50:13;;;;;;;5.33;1.30;;;3.10;99.90;;;;;;5067612;28;20205;-52
2022/02/07 03:52:48;;;;;;;9.47;1.80;;;3.10;99.90;;;;;;5070476;28;20311;-54
2022/02/07 03:55:15;;;;;;;9.87;1.47;;;3.10;99.90;;;;;;5083410;28;20672;-54
2022/02/07 03:57:44;;;;;;;8.10;1.23;;;3.10;99.90;;;;;;5069417;28;20308;-54
2022/02/07 04:00:13;;;;;;;11.07;1.77;;;3.00;99.90;;;;;;5078186;28;20197;-53
2022/02/07 04:02:46;;;;;;;4.73;1.37;;;3.00;99.90;;;;;;5069267;28;20190;-53
2022/02/07 04:05:41;;;;;;;5.00;1.00;;;3.10;99.90;;;;;;5064154;28;20440;-53
2022/02/07 04:08:10;;;;;;;9.07;1.30;;;3.10;99.90;;;;;;5081889;28;20242;-52
2022/02/07 04:10:49;;;;;;;7.17;1.40;;;3.00;99.90;;;;;;5075989;28;20290;-55
2022/02/07 04:13:24;;;;;;;6.07;1.27;;;3.00;99.90;;;;;;5059878;28;20208;-52
2022/02/07 04:15:54;;;;;;;11.57;1.00;;;3.00;99.90;;;;;;5075515;28;20193;-56
2022/02/07 04:18:22;;;;;;;8.83;1.30;;;3.00;99.90;;;;;;5081820;28;20725;-54
2022/02/07 04:20:49;;;;;;;8.30;1.30;;;3.00;99.90;;;;;;5054108;28;20305;-54
2022/02/07 04:23:17;;;;;;;6.13;1.37;;;3.00;99.90;;;;;;5081619;28;20197;-52
2022/02/07 04:25:58;;;;;;;5.40;1.10;;;3.00;99.90;;;;;;5070489;28;20492;-51
2022/02/07 04:28:25;;;;;;;3.60;1.10;;;3.00;99.90;;;;;;5070932;28;20229;-57
2022/02/07 04:30:54;;;;;;;4.63;1.00;;;3.00;99.90;;;;;;5066807;28;20198;-55
2022/02/07 04:33:22;;;;;;;6.40;0.90;;;3.00;99.90;;;;;;5078753;28;20263;-52
2022/02/07 04:35:49;;;;;;;3.73;0.70;;;3.00;99.90;;;;;;5049331;28;20208;-48
2022/02/07 04:38:16;;;;;;;6.07;0.80;;;3.00;99.90;;;;;;5081366;28;20698;-47
2022/02/07 04:40:45;;;;;;;5.47;0.73;;;3.00;99.90;;;;;;5073098;28;20289;-46
2022/02/07 04:43:14;;;;;;;4.37;1.10;;;3.00;99.90;;;;;;5071595;28;20297;-47
2022/02/07 04:45:53;;;;;;;5.33;1.00;;;3.00;99.90;;;;;;5075356;28;20300;-50
2022/02/07 04:48:46;;;;;;;4.83;0.67;;;3.00;99.90;;;;;;5076586;28;20239;-45
2022/02/07 04:51:44;;;;;;;5.40;0.90;;;3.00;99.90;;;;;;5067576;28;20736;-44
2022/02/07 04:57:13;;;;;;;6.57;1.13;;;2.90;99.90;;;;;;5070606;28;20322;-51
2022/02/07 04:59:58;;;;;;;2.30;0.80;;;2.90;99.90;;;;;;5063486;28;20271;-50
2022/02/07 05:02:39;;;;;;;4.93;0.97;;;2.90;99.90;;;;;;5077721;28;20194;-47
2022/02/07 05:05:19;;;;;;;7.03;1.33;;;2.90;99.90;;;;;;5070081;28;20225;-47
2022/02/07 05:15:58;;;;;;;4.23;0.83;;;3.00;99.90;;;;;;5074433;28;20206;-47
2022/02/07 05:18:28;;;;;;;7.73;1.30;;;3.00;99.90;;;;;;5078442;28;20271;-49
2022/02/07 05:21:17;;;;;;;7.87;1.10;;;3.00;99.90;;;;;;5048197;28;20237;-47
2022/02/07 05:24:03;;;;;;;3.93;1.27;;;3.00;99.90;;;;;;5059145;28;20977;-46
2022/02/07 05:27:00;;;;;;;5.90;1.50;;;3.00;99.90;;;;;;5081917;28;20206;-50
2022/02/07 05:29:41;;;;;;;4.73;1.00;;;3.00;99.90;;;;;;5060136;28;20201;-48
2022/02/07 05:32:17;;;;;;;3.93;1.10;;;3.10;99.90;;;;;;5079288;28;20213;-46
2022/02/07 05:35:03;;;;;;;13.67;1.70;;;3.20;99.90;;;;;;5078227;28;20203;-53
2022/02/07 05:37:54;;;;;;;5.77;1.07;;;3.30;99.90;;;;;;5069541;28;20222;-46
2022/02/07 05:40:52;;;;;;;7.70;1.37;;;3.30;99.90;;;;;;5061750;28;20202;-46
2022/02/07 05:43:19;;;;;;;4.40;1.30;;;3.40;99.90;;;;;;5085271;28;20670;-49
2022/02/07 05:46:05;;;;;;;5.80;1.20;;;3.40;99.90;;;;;;5072290;28;20256;-48
2022/02/07 05:49:02;;;;;;;8.87;1.43;;;3.40;99.90;;;;;;5082987;28;20194;-48
2022/02/07 05:51:54;;;;;;;10.70;1.83;;;3.50;99.90;;;;;;5059933;28;20261;-47
2022/02/07 05:54:40;;;;;;;9.13;1.73;;;3.60;99.90;;;;;;5062547;28;20205;-48
2022/02/07 05:57:35;;;;;;;7.70;1.63;;;3.60;99.90;;;;;;5083191;28;20751;-47
2022/02/07 06:00:20;;;;;;;5.17;0.80;;;3.70;99.90;;;;;;5071624;28;20237;-44
2022/02/07 06:02:47;;;;;;;6.23;1.30;;;3.70;99.90;;;;;;5078362;28;20221;-46
2022/02/07 06:05:21;;;;;;;7.17;1.77;;;3.70;99.90;;;;;;5074507;28;20202;-45
2022/02/07 06:07:48;;;;;;;8.60;1.77;;;3.80;99.90;;;;;;5075443;28;20233;-43
2022/02/07 06:10:16;;;;;;;10.43;1.70;;;3.80;99.90;;;;;;5060770;28;20217;-44
2022/02/07 06:12:47;;;;;;;9.37;1.57;;;3.90;99.90;;;;;;5078909;28;20210;-44
2022/02/07 06:15:16;;;;;;;6.00;1.30;;;3.90;99.90;;;;;;5071001;28;21246;-43
2022/02/07 06:17:47;;;;;;;8.73;1.43;;;3.90;99.90;;;;;;5072311;28;20302;-43
2022/02/07 06:20:14;;;;;;;8.63;1.53;;;3.90;99.90;;;;;;5067076;28;20217;-45
2022/02/07 06:22:43;;;;;;;6.63;1.43;;;4.00;99.90;;;;;;5067231;28;20190;-46
2022/02/07 06:25:10;;;;;;;9.57;1.90;;;4.00;99.90;;;;;;5063998;28;20198;-44
2022/02/07 06:27:40;;;;;;;4.80;1.60;;;4.00;99.90;;;;;;5059175;28;20214;-46
2022/02/07 06:30:11;;;;;;;11.13;2.53;;;4.00;99.90;;;;;;5076266;28;20301;-47
2022/02/07 06:32:38;;;;;;;16.10;2.03;;;4.10;99.90;;;;;;5068601;28;20376;-43
2022/02/07 06:35:06;;;;;;;5.87;1.63;;;4.10;99.90;;;;;;5073051;28;20178;-44
2022/02/07 06:37:33;;;;;;;4.20;1.30;;;4.10;99.90;;;;;;5092059;28;20211;-44
2022/02/07 06:40:01;;;;;;;8.80;1.80;;;4.10;99.90;;;;;;5059154;28;20221;-43
2022/02/07 06:42:30;;;;;;;7.60;1.87;;;4.10;99.90;;;;;;5064865;28;20725;-43
2022/02/07 06:44:59;;;;;;;12.17;1.47;;;4.10;99.90;;;;;;5076700;28;20205;-44
2022/02/07 06:47:28;;;;;;;9.27;1.83;;;4.10;99.90;;;;;;5066695;28;20225;-44
2022/02/07 06:49:55;;;;;;;4.70;1.40;;;4.10;99.90;;;;;;5072790;28;20202;-45
2022/02/07 06:52:22;;;;;;;10.77;1.67;;;4.20;99.90;;;;;;5079527;28;20210;-43
2022/02/07 06:54:50;;;;;;;9.07;1.50;;;4.20;99.90;;;;;;5066900;28;20564;-46
2022/02/07 06:57:20;;;;;;;8.07;2.60;;;4.20;99.90;;;;;;5068361;28;20417;-44
2022/02/07 06:59:48;;;;;;;16.23;1.90;;;4.20;99.90;;;;;;5063585;28;20740;-43
2022/02/07 07:02:25;;;;;;;10.23;2.13;;;4.20;99.90;;;;;;5075559;28;20817;-43
2022/02/07 07:04:55;;;;;;;11.03;1.90;;;4.20;99.90;;;;;;5066001;28;20202;-44
2022/02/07 07:07:23;;;;;;;9.00;2.00;;;4.20;99.90;;;;;;5075610;28;20214;-43
2022/02/07 07:09:50;;;;;;;8.33;2.17;;;4.20;99.90;;;;;;5073445;28;20206;-43
2022/02/07 07:12:18;;;;;;;7.27;1.60;;;4.20;99.90;;;;;;5064039;28;20983;-43
2022/02/07 07:14:52;;;;;;;16.93;2.23;;;4.20;99.90;;;;;;5066924;28;20202;-45
2022/02/07 07:17:21;;;;;;;12.23;2.63;;;4.20;99.90;;;;;;5074253;28;20261;-43
2022/02/07 07:19:49;;;;;;;10.57;2.00;;;4.20;99.90;;;;;;5068684;28;20682;-45
2022/02/07 07:22:17;;;;;;;11.70;2.23;;;4.20;99.90;;;;;;5073378;28;20203;-43
2022/02/07 07:24:46;;;;;;;8.23;2.57;;;4.20;99.90;;;;;;5079135;28;20200;-43
2022/02/07 07:27:20;;;;;;;13.60;2.53;;;4.30;99.90;;;;;;5069408;28;20272;-45
2022/02/07 07:29:47;;;;;;;16.90;2.83;;;4.30;99.90;;;;;;5080988;28;20205;-43
2022/02/07 07:32:21;;;;;;;13.10;2.07;;;4.30;99.90;;;;;;5078951;28;20393;-42
2022/02/07 07:34:49;;;;;;;15.57;2.53;;;4.30;99.90;;;;;;5077551;28;20205;-41
2022/02/07 07:37:20;;;;;;;11.50;3.23;;;4.30;99.90;;;;;;5072556;28;20254;-43
2022/02/07 07:39:48;;;;;;;14.50;2.63;;;4.30;99.90;;;;;;5072000;28;20194;-42
2022/02/07 07:42:16;;;;;;;16.77;2.87;;;4.30;99.90;;;;;;5073437;28;20283;-43
2022/02/07 07:44:54;;;;;;;13.47;3.00;;;4.30;99.90;;;;;;5058948;28;20662;-48
2022/02/07 07:47:44;;;;;;;9.60;2.20;;;4.40;99.90;;;;;;5079689;28;20305;-46
2022/02/07 07:50:21;;;;;;;13.27;2.57;;;4.40;99.90;;;;;;5070839;28;20197;-46
2022/02/07 07:53:40;;;;;;;12.87;2.37;;;4.40;99.90;;;;;;5063037;28;20537;-47
2022/02/07 08:01:55;;;;;;;13.53;3.50;;;4.50;99.90;;;;;;5062916;28;20922;-50
2022/02/07 08:04:27;;;;;;;11.43;2.70;;;4.60;99.90;;;;;;5064574;28;20944;-45
2022/02/07 08:07:04;;;;;;;13.07;2.50;;;4.60;99.90;;;;;;5078986;28;21028;-44
2022/02/07 08:12:17;;;;;;;12.30;2.10;;;4.60;99.90;;;;;;5051713;28;20229;-45
2022/02/07 08:14:49;;;;;;;8.40;2.07;;;4.60;99.90;;;;;;5068151;28;20201;-51
2022/02/07 08:17:18;;;;;;;14.53;2.90;;;4.70;99.90;;;;;;5065536;28;20316;-46
2022/02/07 08:19:46;;;;;;;14.57;2.90;;;4.70;99.90;;;;;;5068926;28;20902;-47
2022/02/07 08:22:14;;;;;;;14.53;2.60;;;4.70;99.90;;;;;;5075442;28;20201;-48
2022/02/07 08:24:43;;;;;;;9.80;2.67;;;4.80;99.90;;;;;;5078582;28;20193;-44
2022/02/07 08:27:10;;;;;;;17.63;3.47;;;4.80;99.90;;;;;;5079609;28;20694;-47
2022/02/07 08:29:37;;;;;;;15.87;3.10;;;4.90;99.90;;;;;;5069779;28;20213;-48
2022/02/07 08:32:05;;;;;;;10.77;2.33;;;4.90;99.90;;;;;;5062466;28;20198;-47
2022/02/07 08:34:35;;;;;;;9.60;2.80;;;5.00;99.90;;;;;;5071944;28;20201;-46
2022/02/07 08:37:02;;;;;;;14.30;3.40;;;5.00;99.90;;;;;;5074405;28;20213;-45
2022/02/07 08:39:31;;;;;;;10.03;2.70;;;5.10;99.90;;;;;;5069369;28;20198;-48
2022/02/07 08:41:58;;;;;;;13.43;2.73;;;5.10;99.90;;;;;;5075617;28;20194;-48
2022/02/07 08:44:26;;;;;;;14.93;2.77;;;5.20;99.90;;;;;;5068642;28;20208;-48
2022/02/07 08:46:53;;;;;;;15.03;2.53;;;5.20;99.90;;;;;;5060593;28;20225;-45
2022/02/07 08:49:20;;;;;;;14.73;2.73;;;5.30;99.90;;;;;;5071020;28;20194;-46
2022/02/07 08:51:47;;;;;;;14.07;2.80;;;5.40;99.90;;;;;;5074755;28;20193;-45
2022/02/07 08:54:20;;;;;;;12.20;2.93;;;5.50;99.90;;;;;;5080218;28;20283;-45
2022/02/07 08:56:52;;;;;;;12.60;3.10;;;5.60;99.90;;;;;;5075340;28;20202;-47
2022/02/07 08:59:25;;;;;;;16.10;4.07;;;5.70;99.90;;;;;;5074395;28;20209;-45
2022/02/07 09:02:05;;;;;;;11.27;2.47;;;5.80;99.90;;;;;;5063391;28;20213;-49
2022/02/07 09:04:45;;;;;;;16.10;2.63;;;5.80;99.90;;;;;;5074234;28;20244;-47
2022/02/07 09:07:16;;;;;;;17.10;2.90;;;5.80;99.90;;;;;;5075133;28;20690;-44
2022/02/07 09:09:44;;;;;;;9.80;2.80;;;5.80;99.90;;;;;;5079298;28;20258;-49
2022/02/07 09:12:13;;;;;;;19.17;3.10;;;5.70;99.90;;;;;;5074324;28;20232;-45
2022/02/07 09:14:50;;;;;;;14.33;2.93;;;5.80;99.90;;;;;;5063906;28;20214;-46
2022/02/07 09:17:17;;;;;;;15.90;2.77;;;5.80;99.90;;;;;;5083478;28;20229;-44
2022/02/07 09:19:44;;;;;;;14.23;3.10;;;5.80;99.90;;;;;;5066954;28;20205;-47
2022/02/07 09:22:11;;;;;;;11.67;2.30;;;5.90;99.90;;;;;;5076699;28;20226;-46
2022/02/07 09:24:37;;;;;;;14.70;2.97;;;5.90;99.90;;;;;;5076042;28;20647;-48
2022/02/07 09:27:04;;;;;;;12.13;3.00;;;5.80;99.90;;;;;;5079820;28;20218;-47
2022/02/07 09:29:33;;;;;;;16.07;2.77;;;5.80;99.90;;;;;;5071151;28;20213;-46
2022/02/07 09:32:02;;;;;;;19.80;3.77;;;5.80;99.90;;;;;;5078553;28;20190;-45
2022/02/07 09:34:28;;;;;;;20.03;3.80;;;5.90;99.90;;;;;;5063002;28;20234;-45
2022/02/07 09:36:56;;;;;;;18.80;3.73;;;5.90;99.90;;;;;;5078881;28;20832;-47
2022/02/07 09:39:30;;;;;;;22.20;4.00;;;5.90;99.90;;;;;;5082373;28;20189;-48
2022/02/07 09:41:58;;;;;;;11.73;2.63;;;5.90;99.90;;;;;;5079528;28;20296;-44
2022/02/07 09:44:28;;;;;;;15.77;3.30;;;5.90;99.90;;;;;;5077297;28;20643;-50
2022/02/07 09:46:57;;;;;;;13.53;2.47;;;5.90;99.90;;;;;;5078364;28;20975;-47
2022/02/07 09:49:25;;;;;;;13.70;3.47;;;5.90;99.90;;;;;;5064646;28;20229;-47
2022/02/07 09:51:53;;;;;;;20.10;3.47;;;5.80;99.90;;;;;;5077764;28;20190;-45
2022/02/07 09:54:23;;;;;;;9.40;2.90;;;5.80;99.90;;;;;;5078288;28;20689;-47
2022/02/07 09:56:52;;;;;;;12.13;3.13;;;5.80;99.90;;;;;;5072112;28;20207;-44
2022/02/07 09:59:22;;;;;;;11.37;2.37;;;5.70;99.90;;;;;;5082350;28;20286;-46
2022/02/07 10:01:52;;;;;;;12.77;2.60;;;5.70;99.90;;;;;;5067063;28;20927;-45
2022/02/07 10:04:26;;;;;;;15.40;3.27;;;5.70;99.90;;;;;;5076302;28;20201;-46
2022/02/07 10:07:00;;;;;;;10.90;2.70;;;5.60;99.90;;;;;;5071540;28;21040;-50
2022/02/07 10:12:31;;;;;;;13.33;2.90;;;5.70;99.90;;;;;;5054918;28;20328;-51
2022/02/07 10:15:17;;;;;;;11.37;2.37;;;5.80;99.90;;;;;;5080226;28;20221;-51
2022/02/07 10:17:55;;;;;;;14.83;2.77;;;5.80;99.90;;;;;;5072756;28;20225;-47
2022/02/07 10:35:13;;;;;;;11.90;2.90;;;6.10;99.90;;;;;;5033104;28;20212;-47
2022/02/07 10:37:59;;;;;;;18.33;3.43;;;6.00;99.90;;;;;;5014736;28;20317;-47
2022/02/07 10:40:32;;;;;;;16.87;2.87;;;6.00;99.90;;;;;;5074315;28;20213;-47
2022/02/07 10:43:15;;;;;;;18.83;3.10;;;6.10;99.90;;;;;;5076119;28;20186;-45
2022/02/07 10:46:02;;;;;;;14.83;2.63;;;6.10;99.90;;;;;;5073299;28;20202;-44
2022/02/07 10:48:31;;;;;;;18.73;3.33;;;6.20;99.90;;;;;;5072472;28;20220;-49
2022/02/07 10:51:21;;;;;;;18.67;3.10;;;6.20;99.90;;;;;;5080732;28;20255;-48
2022/02/07 10:53:50;;;;;;;15.03;3.07;;;6.30;99.90;;;;;;5057045;28;20222;-45
2022/02/07 10:56:20;;;;;;;17.73;3.07;;;6.40;99.90;;;;;;5070335;28;20193;-44
2022/02/07 10:58:52;;;;;;;24.73;4.20;;;6.40;99.90;;;;;;5073926;28;20918;-44
2022/02/07 11:01:25;;;;;;;14.60;3.03;;;6.50;99.90;;;;;;5078659;28;20232;-44
2022/02/07 11:03:55;;;;;;;18.20;2.97;;;6.60;99.90;;;;;;5068532;28;20329;-46
2022/02/07 11:06:29;;;;;;;18.07;3.77;;;6.70;99.90;;;;;;5072406;28;20235;-49
2022/02/07 11:12:15;;;;;;;15.80;3.30;;;6.70;99.90;;;;;;5054611;28;20198;-45
2022/02/07 11:14:56;;;;;;;17.47;2.90;;;6.70;99.90;;;;;;5066338;28;20218;-45
2022/02/07 11:17:35;;;;;;;21.97;3.10;;;6.70;99.90;;;;;;5074696;28;20222;-49
2022/02/07 11:23:18;;;;;;;13.27;2.73;;;6.60;99.90;;;;;;5056238;28;20210;-48
2022/02/07 11:25:52;;;;;;;11.60;2.67;;;6.60;99.90;;;;;;5071088;28;20186;-48
2022/02/07 11:28:24;;;;;;;8.87;2.30;;;6.60;99.90;;;;;;5073475;28;20625;-44
2022/02/07 11:30:53;;;;;;;9.33;2.20;;;6.70;99.90;;;;;;5071652;28;20202;-45
2022/02/07 11:33:40;;;;;;;9.63;2.47;;;6.70;99.90;;;;;;5079270;28;20216;-45
2022/02/07 11:36:13;;;;;;;15.83;2.87;;;6.70;99.90;;;;;;5080400;28;20198;-45
2022/02/07 11:38:58;;;;;;;14.33;2.67;;;6.70;99.90;;;;;;5063742;28;20924;-47
2022/02/07 11:41:27;;;;;;;5.93;1.97;;;6.70;99.90;;;;;;5076450;28;20631;-50
2022/02/07 11:43:54;;;;;;;8.07;2.60;;;6.60;99.90;;;;;;5072628;28;20179;-43
2022/02/07 11:46:22;;;;;;;5.23;1.70;;;6.70;99.90;;;;;;5079178;28;20198;-48
2022/02/07 11:48:51;;;;;;;8.83;2.10;;;6.70;99.90;;;;;;5075901;28;20202;-45
2022/02/07 11:51:20;;;;;;;6.57;2.07;;;6.70;99.90;;;;;;5075534;28;20866;-44
2022/02/07 11:53:50;;;;;;;8.53;1.87;;;6.70;99.90;;;;;;5058001;28;20218;-45
2022/02/07 11:56:24;;;;;;;9.67;2.50;;;6.80;99.90;;;;;;5071660;28;20687;-45
2022/02/07 11:59:14;;;;;;;8.50;2.80;;;6.90;99.90;;;;;;5075898;28;20223;-45
2022/02/07 12:01:52;;;;;;;9.40;2.90;;;7.00;99.90;;;;;;5063688;28;20306;-45
2022/02/07 12:04:33;;;;;;;15.03;3.80;;;7.00;99.90;;;;;;5062495;28;20197;-44
2022/02/07 12:07:17;;;;;;;9.20;2.30;;;6.90;99.90;;;;;;5065948;28;20723;-46
2022/02/07 12:10:03;;;;;;;16.13;2.60;;;6.90;99.90;;;;;;5064270;28;20248;-45
2022/02/07 12:12:44;;;;;;;11.27;2.60;;;6.90;99.90;;;;;;5077005;28;20194;-44
2022/02/07 12:15:20;;;;;;;6.30;2.83;;;7.00;99.90;;;;;;5071663;28;20225;-46
2022/02/07 12:17:49;;;;;;;12.77;2.43;;;6.90;99.90;;;;;;5077746;28;20224;-46
2022/02/07 12:20:18;;;;;;;5.30;2.27;;;6.90;99.90;;;;;;5072177;28;20278;-43
2022/02/07 12:22:54;;;;;;;7.97;1.80;;;6.90;99.90;;;;;;5069248;28;20206;-45
2022/02/07 12:25:45;;;;;;;12.50;2.33;;;6.90;99.90;;;;;;5064785;28;20206;-42
2022/02/07 12:28:17;;;;;;;12.03;2.70;;;6.80;99.90;;;;;;5072640;28;20209;-44
2022/02/07 12:30:59;;;;;;;15.40;2.57;;;6.90;99.90;;;;;;5070875;28;20199;-44
2022/02/07 12:33:27;;;;;;;16.13;3.40;;;7.00;99.90;;;;;;5078922;28;20265;-42
2022/02/07 12:35:57;;;;;;;11.47;2.07;;;6.80;99.90;;;;;;5074288;28;20198;-44
2022/02/07 12:38:24;;;;;;;11.17;2.87;;;6.80;99.90;;;;;;5069943;28;20213;-45
2022/02/07 12:40:50;;;;;;;13.80;2.67;;;6.80;99.90;;;;;;5069087;28;20209;-45
2022/02/07 12:43:19;;;;;;;10.43;3.03;;;6.90;99.90;;;;;;5079452;28;20202;-47
2022/02/07 12:45:48;;;;;;;10.10;2.57;;;7.00;99.90;;;;;;5081160;28;20361;-47
2022/02/07 12:48:19;;;;;;;13.53;3.47;;;7.10;99.90;;;;;;5076021;28;20218;-49
2022/02/07 12:50:50;;;;;;;13.70;2.77;;;7.10;99.90;;;;;;5084141;28;20213;-47
2022/02/07 12:53:17;;;;;;;10.57;2.43;;;7.10;99.90;;;;;;5066160;28;20208;-46
2022/02/07 12:55:46;;;;;;;13.13;2.97;;;7.10;99.90;;;;;;5064483;28;20705;-47
2022/02/07 12:58:13;;;;;;;12.50;2.37;;;7.10;99.90;;;;;;5074132;28;20214;-46
2022/02/07 13:00:40;;;;;;;12.87;2.70;;;7.00;99.90;;;;;;5075102;28;20597;-44
2022/02/07 13:03:08;;;;;;;13.67;2.70;;;6.90;99.90;;;;;;5073283;28;20663;-52
2022/02/07 13:05:35;;;;;;;16.07;2.77;;;6.80;99.90;;;;;;5081163;28;20218;-46
2022/02/07 13:08:02;;;;;;;10.33;1.87;;;6.80;99.90;;;;;;5076469;28;20221;-47
2022/02/07 13:10:35;;;;;;;3.83;0.93;;;6.80;99.90;;;;;;5057794;28;21242;-52
2022/02/07 13:13:20;;;;;;;8.50;1.87;;;6.60;99.90;;;;;;5082991;28;20831;-49
2022/02/07 13:15:47;;;;;;;5.13;1.53;;;6.50;99.90;;;;;;5077725;28;20220;-52
2022/02/07 13:18:19;;;;;;;5.53;1.23;;;6.40;99.90;;;;;;5071973;28;20214;-50
2022/02/07 13:20:46;;;;;;;6.90;1.83;;;6.40;99.90;;;;;;5082294;28;20210;-50
2022/02/07 13:23:15;;;;;;;5.20;1.30;;;6.30;99.90;;;;;;5075482;28;20210;-49
2022/02/07 13:25:44;;;;;;;7.67;1.80;;;6.20;99.90;;;;;;5072230;28;20275;-47
2022/02/07 13:28:13;;;;;;;6.57;1.57;;;6.20;99.90;;;;;;5068256;28;20226;-46
2022/02/07 13:30:41;;;;;;;3.83;1.60;;;6.20;99.90;;;;;;5075528;28;20202;-43
2022/02/07 13:33:08;;;;;;;12.17;2.00;;;6.10;99.90;;;;;;5077406;28;20558;-45
2022/02/07 13:35:43;;;;;;;6.80;1.63;;;6.10;99.90;;;;;;5079567;28;20221;-43
2022/02/07 13:38:12;;;;;;;10.10;1.80;;;6.10;99.90;;;;;;5069378;28;20229;-47
2022/02/07 13:40:41;;;;;;;10.50;2.77;;;6.20;99.90;;;;;;5068672;28;20213;-47
2022/02/07 13:43:19;;;;;;;12.10;2.60;;;6.10;99.90;;;;;;5064110;28;20682;-44
2022/02/07 13:45:49;;;;;;;13.67;2.63;;;6.10;99.90;;;;;;5075696;28;20226;-46
2022/02/07 13:48:17;;;;;;;6.03;1.83;;;6.10;99.90;;;;;;5070963;28;20222;-44
2022/02/07 13:50:48;;;;;;;11.07;2.00;;;6.10;99.90;;;;;;5081487;28;20209;-45
2022/02/07 13:53:18;;;;;;;11.80;2.40;;;6.10;99.90;;;;;;5079343;28;20194;-44
2022/02/07 13:55:46;;;;;;;11.53;2.17;;;6.20;99.90;;;;;;5079312;28;20222;-45
2022/02/07 13:58:15;;;;;;;14.90;2.17;;;6.20;99.90;;;;;;5060308;28;20684;-46
2022/02/07 14:00:54;;;;;;;13.63;3.10;;;6.30;99.90;;;;;;5080721;28;20197;-45
2022/02/07 14:03:23;;;;;;;9.17;1.97;;;6.40;99.90;;;;;;5076139;28;20557;-44
2022/02/07 14:05:53;;;;;;;11.30;2.37;;;6.80;99.90;;;;;;5072323;28;20190;-46
2022/02/07 14:08:32;;;;;;;11.17;2.53;;;7.40;99.90;;;;;;5073299;28;20280;-44
2022/02/07 14:10:59;;;;;;;11.23;2.57;;;7.40;99.90;;;;;;5071192;28;22927;-45
2022/02/07 14:13:26;;;;;;;13.33;2.90;;;7.30;99.90;;;;;;5051796;28;20874;-47
2022/02/07 14:15:52;;;;;;;12.27;3.03;;;7.10;99.90;;;;;;5078927;28;20210;-43
2022/02/07 14:18:21;;;;;;;11.27;2.97;;;7.00;99.90;;;;;;5067720;28;20312;-45
2022/02/07 14:20:49;;;;;;;12.57;2.60;;;6.90;99.90;;;;;;5079620;28;20255;-47
2022/02/07 14:23:18;;;;;;;13.70;2.87;;;6.80;99.90;;;;;;5078682;28;20205;-44
2022/02/07 14:25:48;;;;;;;14.47;3.33;;;6.70;99.90;;;;;;5073750;28;20277;-47
2022/02/07 14:28:16;;;;;;;14.07;2.33;;;6.80;99.90;;;;;;5057183;28;20249;-47
2022/02/07 14:30:43;;;;;;;12.33;2.80;;;6.80;99.90;;;;;;5081563;28;20221;-49
2022/02/07 14:33:10;;;;;;;18.03;3.43;;;6.70;99.90;;;;;;5067419;28;20217;-48
2022/02/07 14:35:37;;;;;;;17.20;2.87;;;6.70;99.90;;;;;;5079090;28;20225;-44
2022/02/07 14:38:06;;;;;;;12.30;2.33;;;6.60;99.90;;;;;;5074405;28;20251;-47
2022/02/07 14:40:36;;;;;;;11.70;2.57;;;6.60;99.90;;;;;;5078404;28;20197;-46
2022/02/07 14:43:04;;;;;;;19.20;3.73;;;6.50;99.90;;;;;;5074633;28;20544;-46
2022/02/07 14:45:36;;;;;;;13.00;3.87;;;6.50;99.90;;;;;;5067339;28;20945;-44
2022/02/07 14:48:05;;;;;;;11.33;2.87;;;6.70;99.90;;;;;;5078862;28;20210;-46
2022/02/07 14:50:33;;;;;;;7.87;2.67;;;6.90;99.90;;;;;;5074161;28;20925;-45
2022/02/07 14:53:00;;;;;;;7.87;2.30;;;7.00;99.90;;;;;;5081586;28;20212;-46